Time;durP1;ratioP1;P1;durP2;ratioP2;P2;SDS_P1;SDS_P2;PMS_P1;PMS_P2;Temp;Humidity;BMP_temperature;BMP_pressure;BME280_temperature;BME280_humidity;BME280_pressure;Samples;Min_cycle;Max_cycle;Signal;HPM_P1;HPM_P2
2022/05/30 00:01:46;;;;;;;;;;;;;;;;;;4994677;28;19917;-61
2022/05/30 00:04:12;;;;;;;;;;;;;;;;;;4992154;28;19921;-61
2022/05/30 00:06:37;;;;;;;;;;;;;;;;;;4995368;28;20665;-61
2022/05/30 00:09:02;;;;;;;;;;;;;;;;;;4991392;28;20337;-61
2022/05/30 00:11:27;;;;;;;;;;;;;;;;;;4990948;28;19921;-61
2022/05/30 00:13:53;;;;;;;;;;;;;;;;;;4996058;28;20353;-61
2022/05/30 00:16:18;;;;;;;;;;;;;;;;;;4995591;28;19917;-61
2022/05/30 00:18:43;;;;;;;;;;;;;;;;;;4997204;28;19918;-61
2022/05/30 00:21:08;;;;;;;;;;;;;;;;;;4994250;28;19918;-61
2022/05/30 00:23:33;;;;;;;;;;;;;;;;;;4994520;28;19927;-61
2022/05/30 00:25:59;;;;;;;;;;;;;;;;;;4997798;28;19928;-61
2022/05/30 00:28:24;;;;;;;;;;;;;;;;;;4995785;28;20291;-61
2022/05/30 00:30:49;;;;;;;;;;;;;;;;;;5001560;28;19918;-61
2022/05/30 00:33:14;;;;;;;;;;;;;;;;;;4991535;28;19918;-61
2022/05/30 00:35:40;;;;;;;;;;;;;;;;;;4994343;28;19917;-61
2022/05/30 00:38:05;;;;;;;;;;;;;;;;;;4995514;28;19922;-61
2022/05/30 00:40:31;;;;;;;;;;;;;;;;;;4991797;28;20377;-61
2022/05/30 00:42:56;;;;;;;;;;;;;;;;;;4996719;28;20401;-61
2022/05/30 00:45:21;;;;;;;;;;;;;;;;;;4994612;28;20286;-61
2022/05/30 00:47:46;;;;;;;;;;;;;;;;;;4991691;28;19933;-61
2022/05/30 00:50:12;;;;;;;;;;;;;;;;;;5001240;28;20379;-61
2022/05/30 00:52:37;;;;;;;;;;;;;;;;;;4991899;28;19963;-61
2022/05/30 00:55:02;;;;;;;;;;;;;;;;;;4992417;28;19917;-61
2022/05/30 00:57:27;;;;;;;;;;;;;;;;;;4989225;28;20366;-61
2022/05/30 00:59:52;;;;;;;;;;;;;;;;;;4990712;28;19960;-61
2022/05/30 01:02:18;;;;;;;;;;;;;;;;;;5000308;28;19925;-61
2022/05/30 01:07:27;;;;;;;;;;;;;;;;;;4996196;28;19932;-61
2022/05/30 01:09:54;;;;;;;;;;;;;;;;;;4994676;28;19926;-61
2022/05/30 01:12:19;;;;;;;;;;;;;;;;;;4993389;28;20036;-61
2022/05/30 01:14:44;;;;;;;;;;;;;;;;;;4997532;28;20032;-61
2022/05/30 01:17:09;;;;;;;;;;;;;;;;;;4990182;28;19957;-61
2022/05/30 01:19:35;;;;;;;;;;;;;;;;;;4994744;28;20784;-61
2022/05/30 01:22:00;;;;;;;;;;;;;;;;;;4993569;28;20390;-61
2022/05/30 01:24:25;;;;;;;;;;;;;;;;;;4996038;28;19918;-61
2022/05/30 01:27:20;;;;;;;;;;;;;;;;;;5015267;28;20006;-61
2022/05/30 01:29:48;;;;;;;;;;;;;;;;;;4991298;28;19917;-61
2022/05/30 01:32:13;;;;;;;;;;;;;;;;;;4990872;28;19924;-61
2022/05/30 01:34:38;;;;;;;;;;;;;;;;;;5000389;28;19999;-61
2022/05/30 01:37:04;;;;;;;;;;;;;;;;;;4994246;28;20008;-61
2022/05/30 01:39:33;;;;;;;;;;;;;;;;;;5011673;28;19967;-61
2022/05/30 01:41:58;;;;;;;;;;;;;;;;;;4991845;28;19925;-61
2022/05/30 01:44:24;;;;;;;;;;;;;;;;;;4994967;28;19918;-61
2022/05/30 01:46:49;;;;;;;;;;;;;;;;;;4998516;28;19976;-61
2022/05/30 01:49:15;;;;;;;;;;;;;;;;;;4990633;28;20368;-60
2022/05/30 01:51:40;;;;;;;;;;;;;;;;;;4998785;28;19928;-60
2022/05/30 01:54:08;;;;;;;;;;;;;;;;;;4989016;28;19918;-60
2022/05/30 01:56:52;;;;;;;;;;;;;;;;;;4992439;28;19924;-60
2022/05/30 01:59:19;;;;;;;;;;;;;;;;;;4992107;28;20391;-60
2022/05/30 02:02:10;;;;;;;;;;;;;;;;;;4989818;28;19917;-61
2022/05/30 02:04:35;;;;;;;;;;;;;;;;;;4989431;28;19918;-60
2022/05/30 02:07:00;;;;;;;;;;;;;;;;;;4996305;28;19984;-60
2022/05/30 02:09:25;;;;;;;;;;;;;;;;;;4993921;28;19967;-60
2022/05/30 02:11:51;;;;;;;;;;;;;;;;;;4999388;28;20838;-60
2022/05/30 02:14:30;;;;;;;;;;;;;;;;;;5000267;28;20750;-60
2022/05/30 02:17:04;;;;;;;;;;;;;;;;;;4989850;28;19918;-60
2022/05/30 02:19:31;;;;;;;;;;;;;;;;;;5000012;28;20382;-60
2022/05/30 02:21:57;;;;;;;;;;;;;;;;;;4989122;28;19937;-60
2022/05/30 02:24:23;;;;;;;;;;;;;;;;;;4990592;28;20701;-60
2022/05/30 02:26:48;;;;;;;;;;;;;;;;;;4996718;28;19925;-60
2022/05/30 02:29:16;;;;;;;;;;;;;;;;;;5004668;28;19955;-60
2022/05/30 02:31:51;;;;;;;;;;;;;;;;;;4999099;28;19953;-60
2022/05/30 02:37:00;;;;;;;;;;;;;;;;;;4993120;28;19917;-60
2022/05/30 02:39:25;;;;;;;;;;;;;;;;;;4998845;28;19925;-60
2022/05/30 02:42:09;;;;;;;;;;;;;;;;;;4987377;28;19932;-61
2022/05/30 02:44:36;;;;;;;;;;;;;;;;;;4991906;28;19918;-61
2022/05/30 02:47:02;;;;;;;;;;;;;;;;;;4997934;28;19926;-60
2022/05/30 02:49:27;;;;;;;;;;;;;;;;;;4991009;28;19926;-61
2022/05/30 02:51:53;;;;;;;;;;;;;;;;;;4995209;28;20326;-60
2022/05/30 02:54:19;;;;;;;;;;;;;;;;;;4992345;28;20364;-60
2022/05/30 02:56:47;;;;;;;;;;;;;;;;;;4987864;28;20462;-60
2022/05/30 02:59:12;;;;;;;;;;;;;;;;;;4982073;28;19922;-61
2022/05/30 03:01:44;;;;;;;;;;;;;;;;;;4990358;28;19949;-60
2022/05/30 03:04:09;;;;;;;;;;;;;;;;;;4992918;28;20009;-60
2022/05/30 03:06:35;;;;;;;;;;;;;;;;;;4993095;28;19972;-60
2022/05/30 03:09:00;;;;;;;;;;;;;;;;;;5004344;28;19989;-60
2022/05/30 03:11:46;;;;;;;;;;;;;;;;;;4993023;28;19928;-60
2022/05/30 03:14:11;;;;;;;;;;;;;;;;;;4992253;28;19922;-60
2022/05/30 03:16:36;;;;;;;;;;;;;;;;;;4988438;28;19917;-61
2022/05/30 03:19:02;;;;;;;;;;;;;;;;;;5007953;28;19928;-60
2022/05/30 03:21:27;;;;;;;;;;;;;;;;;;4978960;28;19913;-60
2022/05/30 03:23:53;;;;;;;;;;;;;;;;;;4995049;28;19917;-60
2022/05/30 03:26:26;;;;;;;;;;;;;;;;;;4989997;28;20042;-60
2022/05/30 03:28:51;;;;;;;;;;;;;;;;;;4988457;28;20402;-61
2022/05/30 03:31:16;;;;;;;;;;;;;;;;;;4993867;28;20372;-61
2022/05/30 03:33:42;;;;;;;;;;;;;;;;;;4985484;28;19925;-61
2022/05/30 03:36:08;;;;;;;;;;;;;;;;;;4997959;28;19921;-60
2022/05/30 03:38:53;;;;;;;;;;;;;;;;;;4979598;28;20353;-61
2022/05/30 03:41:37;;;;;;;;;;;;;;;;;;4989533;28;20656;-60
2022/05/30 03:44:06;;;;;;;;;;;;;;;;;;4994154;28;20460;-60
2022/05/30 03:46:32;;;;;;;;;;;;;;;;;;4993467;28;19976;-60
2022/05/30 03:48:58;;;;;;;;;;;;;;;;;;4989912;28;19983;-61
2022/05/30 03:51:23;;;;;;;;;;;;;;;;;;4994437;28;19999;-60
2022/05/30 03:53:48;;;;;;;;;;;;;;;;;;4989225;28;19925;-61
2022/05/30 03:56:13;;;;;;;;;;;;;;;;;;4996259;28;19918;-60
2022/05/30 03:58:39;;;;;;;;;;;;;;;;;;4988159;28;19924;-59
2022/05/30 04:01:04;;;;;;;;;;;;;;;;;;4990625;28;20274;-60
2022/05/30 04:03:29;;;;;;;;;;;;;;;;;;4997847;28;19928;-60
2022/05/30 04:05:54;;;;;;;;;;;;;;;;;;4988052;28;19918;-60
2022/05/30 04:08:19;;;;;;;;;;;;;;;;;;4999459;28;19952;-60
2022/05/30 04:11:05;;;;;;;;;;;;;;;;;;4990472;28;19917;-60
2022/05/30 04:13:53;;;;;;;;;;;;;;;;;;4991737;28;19957;-62
2022/05/30 04:16:26;;;;;;;;;;;;;;;;;;5000971;28;20444;-61
2022/05/30 04:18:52;;;;;;;;;;;;;;;;;;4992564;28;19918;-61
2022/05/30 04:21:17;;;;;;;;;;;;;;;;;;4987789;28;20454;-62
2022/05/30 04:23:42;;;;;;;;;;;;;;;;;;5011818;28;19968;-60
2022/05/30 04:26:10;;;;;;;;;;;;;;;;;;4995835;28;20480;-61
2022/05/30 04:28:37;;;;;;;;;;;;;;;;;;5010112;28;20136;-61
2022/05/30 04:31:21;;;;;;;;;;;;;;;;;;4993744;28;19973;-62
2022/05/30 04:33:46;;;;;;;;;;;;;;;;;;4992810;28;19917;-61
2022/05/30 04:36:11;;;;;;;;;;;;;;;;;;4997235;28;20469;-61
2022/05/30 04:38:39;;;;;;;;;;;;;;;;;;4996372;28;19922;-62
2022/05/30 04:41:27;;;;;;;;;;;;;;;;;;4993274;28;20711;-62
2022/05/30 04:44:13;;;;;;;;;;;;;;;;;;5005612;28;19922;-62
2022/05/30 04:47:04;;;;;;;;;;;;;;;;;;4997969;28;20354;-61
2022/05/30 04:49:29;;;;;;;;;;;;;;;;;;5005626;28;20618;-61
2022/05/30 04:51:54;;;;;;;;;;;;;;;;;;4999751;28;19918;-60
2022/05/30 04:54:20;;;;;;;;;;;;;;;;;;4998696;28;19924;-61
2022/05/30 04:57:04;;;;;;;;;;;;;;;;;;4996864;28;19955;-60
2022/05/30 04:59:32;;;;;;;;;;;;;;;;;;4989123;28;20004;-61
2022/05/30 05:02:02;;;;;;;;;;;;;;;;;;4992894;28;19922;-62
2022/05/30 05:04:28;;;;;;;;;;;;;;;;;;4999121;28;19936;-62
2022/05/30 05:06:53;;;;;;;;;;;;;;;;;;4995658;28;20365;-62
2022/05/30 05:09:19;;;;;;;;;;;;;;;;;;4996533;28;20654;-60
2022/05/30 05:12:03;;;;;;;;;;;;;;;;;;4994614;28;19976;-60
2022/05/30 05:14:47;;;;;;;;;;;;;;;;;;4993871;28;19923;-61
2022/05/30 05:17:31;;;;;;;;;;;;;;;;;;4997731;28;19924;-61
2022/05/30 05:19:56;;;;;;;;;;;;;;;;;;4995039;28;19918;-60
2022/05/30 05:22:21;;;;;;;;;;;;;;;;;;4999280;28;19925;-61
2022/05/30 05:24:47;;;;;;;;;;;;;;;;;;5001010;28;19917;-62
2022/05/30 05:27:12;;;;;;;;;;;;;;;;;;4995737;28;19925;-61
2022/05/30 05:29:38;;;;;;;;;;;;;;;;;;4996481;28;20286;-61
2022/05/30 05:32:04;;;;;;;;;;;;;;;;;;4995347;28;19928;-61
2022/05/30 05:34:29;;;;;;;;;;;;;;;;;;5001346;28;19949;-61
2022/05/30 05:36:54;;;;;;;;;;;;;;;;;;5009261;28;20127;-61
2022/05/30 05:39:20;;;;;;;;;;;;;;;;;;4999566;28;19957;-61
2022/05/30 05:42:12;;;;;;;;;;;;;;;;;;4994323;28;19917;-61
2022/05/30 05:44:38;;;;;;;;;;;;;;;;;;4994425;28;19917;-61
2022/05/30 05:47:03;;;;;;;;;;;;;;;;;;4984240;28;20004;-61
2022/05/30 05:49:30;;;;;;;;;;;;;;;;;;4998046;28;19928;-62
2022/05/30 05:51:55;;;;;;;;;;;;;;;;;;4995964;28;20659;-62
2022/05/30 05:54:23;;;;;;;;;;;;;;;;;;4997276;28;19995;-61
2022/05/30 05:56:50;;;;;;;;;;;;;;;;;;4986609;28;19917;-61
2022/05/30 05:59:21;;;;;;;;;;;;;;;;;;4997280;28;19924;-61
2022/05/30 06:01:46;;;;;;;;;;;;;;;;;;5000888;28;19918;-61
2022/05/30 06:04:11;;;;;;;;;;;;;;;;;;5000627;28;19928;-61
2022/05/30 06:06:42;;;;;;;;;;;;;;;;;;4994226;28;20024;-61
2022/05/30 06:09:08;;;;;;;;;;;;;;;;;;4997803;28;19983;-61
2022/05/30 06:11:50;;;;;;;;;;;;;;;;;;4998839;28;20099;-62
2022/05/30 06:14:15;;;;;;;;;;;;;;;;;;5000481;28;19922;-62
2022/05/30 06:16:41;;;;;;;;;;;;;;;;;;4997867;28;19924;-62
2022/05/30 06:19:11;;;;;;;;;;;;;;;;;;4996419;28;19960;-61
2022/05/30 06:21:37;;;;;;;;;;;;;;;;;;4996127;28;19972;-61
2022/05/30 06:24:02;;;;;;;;;;;;;;;;;;4984559;28;19968;-62
2022/05/30 06:26:45;;;;;;;;;;;;;;;;;;4995344;28;19973;-63
2022/05/30 06:29:30;;;;;;;;;;;;;;;;;;4972411;28;19926;-62
2022/05/30 06:31:57;;;;;;;;;;;;;;;;;;4987477;28;20028;-62
2022/05/30 06:34:23;;;;;;;;;;;;;;;;;;5005102;28;19917;-61
2022/05/30 06:36:48;;;;;;;;;;;;;;;;;;4997038;28;19917;-62
2022/05/30 06:39:17;;;;;;;;;;;;;;;;;;5011925;28;19957;-61
2022/05/30 06:41:53;;;;;;;;;;;;;;;;;;4997106;28;20008;-62
2022/05/30 06:44:18;;;;;;;;;;;;;;;;;;4998924;28;20508;-62
2022/05/30 06:47:02;;;;;;;;;;;;;;;;;;4994787;28;19979;-63
2022/05/30 06:50:04;;;;;;;;;;;;;;;;;;5002634;28;20004;-62
2022/05/30 06:52:30;;;;;;;;;;;;;;;;;;4995045;28;20032;-63
2022/05/30 06:54:56;;;;;;;;;;;;;;;;;;4991460;28;20287;-62
2022/05/30 07:00:07;;;;;;;;;;;;;;;;;;4990865;28;19925;-62
2022/05/30 07:02:37;;;;;;;;;;;;;;;;;;4989403;28;20639;-62
2022/05/30 07:05:05;;;;;;;;;;;;;;;;;;4994753;28;19917;-62
2022/05/30 07:08:02;;;;;;;;;;;;;;;;;;5002077;28;19941;-62
2022/05/30 07:10:58;;;;;;;;;;;;;;;;;;4996539;28;19918;-63
2022/05/30 07:13:24;;;;;;;;;;;;;;;;;;4996647;28;19917;-62
2022/05/30 07:15:51;;;;;;;;;;;;;;;;;;4992457;28;20531;-62
2022/05/30 07:18:21;;;;;;;;;;;;;;;;;;4993224;28;19917;-61
2022/05/30 07:20:48;;;;;;;;;;;;;;;;;;4992511;28;19925;-62
2022/05/30 07:23:26;;;;;;;;;;;;;;;;;;4990303;28;20008;-63
2022/05/30 07:26:10;;;;;;;;;;;;;;;;;;4991628;28;19928;-62
2022/05/30 07:28:54;;;;;;;;;;;;;;;;;;4993152;28;19975;-62
2022/05/30 07:31:38;;;;;;;;;;;;;;;;;;4993258;28;19925;-61
2022/05/30 07:34:22;;;;;;;;;;;;;;;;;;4990609;28;19928;-63
2022/05/30 07:37:06;;;;;;;;;;;;;;;;;;4993523;28;19964;-62
2022/05/30 07:39:50;;;;;;;;;;;;;;;;;;4990914;28;19925;-62
2022/05/30 07:42:51;;;;;;;;;;;;;;;;;;4996704;28;20218;-62
2022/05/30 07:45:25;;;;;;;;;;;;;;;;;;4992595;28;19941;-62
2022/05/30 07:48:09;;;;;;;;;;;;;;;;;;4994618;28;21772;-62
2022/05/30 07:50:55;;;;;;;;;;;;;;;;;;4998279;28;20011;-63
2022/05/30 07:53:34;;;;;;;;;;;;;;;;;;5000757;28;19917;-63
2022/05/30 07:56:18;;;;;;;;;;;;;;;;;;4997087;28;19925;-63
2022/05/30 07:58:44;;;;;;;;;;;;;;;;;;4987751;28;19917;-62
2022/05/30 08:01:09;;;;;;;;;;;;;;;;;;4995598;28;20878;-62
2022/05/30 08:03:37;;;;;;;;;;;;;;;;;;4990274;28;19925;-62
2022/05/30 08:06:32;;;;;;;;;;;;;;;;;;4994105;28;19921;-63
2022/05/30 08:09:17;;;;;;;;;;;;;;;;;;5002957;28;19921;-62
2022/05/30 08:11:58;;;;;;;;;;;;;;;;;;4996710;28;19925;-62
2022/05/30 08:14:42;;;;;;;;;;;;;;;;;;4994112;28;19928;-63
2022/05/30 08:17:08;;;;;;;;;;;;;;;;;;4998254;28;19918;-63
2022/05/30 08:19:33;;;;;;;;;;;;;;;;;;4985364;28;20543;-63
2022/05/30 08:21:58;;;;;;;;;;;;;;;;;;4967565;28;20022;-63
2022/05/30 08:24:23;;;;;;;;;;;;;;;;;;4983271;28;19918;-62
2022/05/30 08:26:55;;;;;;;;;;;;;;;;;;4981495;28;19973;-63
2022/05/30 08:29:38;;;;;;;;;;;;;;;;;;4984794;28;19929;-63
2022/05/30 08:32:03;;;;;;;;;;;;;;;;;;4996943;28;19918;-62
2022/05/30 08:34:59;;;;;;;;;;;;;;;;;;5010314;28;19966;-63
2022/05/30 08:37:30;;;;;;;;;;;;;;;;;;4997223;28;19940;-63
2022/05/30 08:42:40;;;;;;;;;;;;;;;;;;4996257;28;19918;-62
2022/05/30 08:45:08;;;;;;;;;;;;;;;;;;4993887;28;19922;-62
2022/05/30 08:47:46;;;;;;;;;;;;;;;;;;4984072;28;19948;-63
2022/05/30 08:50:11;;;;;;;;;;;;;;;;;;4996947;28;19958;-62
2022/05/30 08:52:36;;;;;;;;;;;;;;;;;;4996220;28;20266;-64
2022/05/30 08:55:02;;;;;;;;;;;;;;;;;;4997270;28;19925;-65
2022/05/30 08:57:33;;;;;;;;;;;;;;;;;;4998407;28;20376;-64
2022/05/30 09:00:02;;;;;;;;;;;;;;;;;;4999613;28;19975;-63
2022/05/30 09:02:30;;;;;;;;;;;;;;;;;;4994221;28;20349;-63
2022/05/30 09:05:06;;;;;;;;;;;;;;;;;;4985853;28;19917;-64
2022/05/30 09:07:33;;;;;;;;;;;;;;;;;;4996774;28;19929;-63
2022/05/30 09:09:58;;;;;;;;;;;;;;;;;;5000046;28;19948;-63
2022/05/30 09:12:31;;;;;;;;;;;;;;;;;;4991513;28;19924;-63
2022/05/30 09:15:07;;;;;;;;;;;;;;;;;;4999813;28;19917;-61
2022/05/30 09:17:33;;;;;;;;;;;;;;;;;;5000692;28;19925;-63
2022/05/30 09:19:58;;;;;;;;;;;;;;;;;;4983994;28;19953;-64
2022/05/30 09:22:25;;;;;;;;;;;;;;;;;;4991842;28;19917;-63
2022/05/30 09:27:48;;;;;;;;;;;;;;;;;;4997364;28;20870;-63
2022/05/30 09:30:39;;;;;;;;;;;;;;;;;;4992831;28;19929;-62
2022/05/30 09:33:42;;;;;;;;;;;;;;;;;;5020046;28;19925;-64
2022/05/30 09:36:37;;;;;;;;;;;;;;;;;;4986318;28;19917;-62
2022/05/30 09:39:32;;;;;;;;;;;;;;;;;;4982085;28;19926;-63
2022/05/30 09:41:57;;;;;;;;;;;;;;;;;;4993432;28;19979;-62
2022/05/30 09:44:25;;;;;;;;;;;;;;;;;;4993877;28;20384;-62
2022/05/30 09:47:00;;;;;;;;;;;;;;;;;;4994685;28;19921;-63
2022/05/30 09:49:31;;;;;;;;;;;;;;;;;;4994597;28;20024;-63
2022/05/30 09:52:04;;;;;;;;;;;;;;;;;;4998996;28;20393;-62
2022/05/30 09:54:29;;;;;;;;;;;;;;;;;;5008342;28;19922;-63
2022/05/30 09:56:55;;;;;;;;;;;;;;;;;;4999741;28;20285;-63
2022/05/30 09:59:25;;;;;;;;;;;;;;;;;;4998911;28;20412;-63
2022/05/30 10:02:02;;;;;;;;;;;;;;;;;;4995293;28;20768;-62
2022/05/30 10:04:27;;;;;;;;;;;;;;;;;;4995821;28;20319;-61
2022/05/30 10:06:58;;;;;;;;;;;;;;;;;;4994748;28;19930;-64
2022/05/30 10:09:28;;;;;;;;;;;;;;;;;;4996057;28;19918;-65
2022/05/30 10:12:02;;;;;;;;;;;;;;;;;;4994307;28;19921;-63
2022/05/30 10:14:29;;;;;;;;;;;;;;;;;;4993762;28;20366;-63
2022/05/30 10:17:15;;;;;;;;;;;;;;;;;;5006515;28;19973;-63
2022/05/30 10:19:41;;;;;;;;;;;;;;;;;;4992799;28;20044;-63
2022/05/30 10:28:15;;;;;;;;;;;;;;;;;;4993944;28;20016;-63
2022/05/30 10:31:12;;;;;;;;;;;;;;;;;;4995164;28;20550;-63
2022/05/30 10:33:48;;;;;;;;;;;;;;;;;;4995503;28;20270;-63
2022/05/30 10:36:13;;;;;;;;;;;;;;;;;;4992159;28;20272;-63
2022/05/30 10:38:38;;;;;;;;;;;;;;;;;;4994209;28;20652;-64
2022/05/30 10:41:03;;;;;;;;;;;;;;;;;;5015130;28;19918;-64
2022/05/30 10:43:29;;;;;;;;;;;;;;;;;;5012792;28;20041;-63
2022/05/30 10:45:54;;;;;;;;;;;;;;;;;;5012835;28;20008;-63
2022/05/30 10:48:19;;;;;;;;;;;;;;;;;;5012776;28;19976;-62
2022/05/30 10:50:50;;;;;;;;;;;;;;;;;;5009453;28;19917;-64
2022/05/30 10:53:18;;;;;;;;;;;;;;;;;;5013101;28;19920;-63
2022/05/30 10:56:23;;;;;;;;;;;;;;;;;;4976701;28;20154;-63
2022/05/30 10:58:49;;;;;;;;;;;;;;;;;;4971248;28;19925;-63
2022/05/30 11:01:15;;;;;;;;;;;;;;;;;;4988908;28;19917;-64
2022/05/30 11:03:40;;;;;;;;;;;;;;;;;;5015996;28;20707;-63
2022/05/30 11:06:06;;;;;;;;;;;;;;;;;;5016447;28;20313;-64
2022/05/30 11:08:32;;;;;;;;;;;;;;;;;;5014495;28;20015;-63
2022/05/30 11:10:58;;;;;;;;;;;;;;;;;;5012514;28;19917;-64
2022/05/30 11:13:24;;;;;;;;;;;;;;;;;;5009703;28;19917;-63
2022/05/30 11:16:17;;;;;;;;;;;;;;;;;;5028732;28;19971;-64
2022/05/30 11:19:05;;;;;;;;;;;;;;;;;;5012051;28;19943;-65
2022/05/30 11:21:50;;;;;;;;;;;;;;;;;;5014071;28;19933;-63
2022/05/30 11:24:16;;;;;;;;;;;;;;;;;;5021527;28;20011;-64
2022/05/30 11:26:42;;;;;;;;;;;;;;;;;;5008007;28;19945;-66
2022/05/30 11:29:07;;;;;;;;;;;;;;;;;;5015475;28;19971;-63
2022/05/30 11:31:32;;;;;;;;;;;;;;;;;;5021178;28;19921;-64
2022/05/30 11:33:57;;;;;;;;;;;;;;;;;;5014549;28;19929;-64
2022/05/30 11:36:22;;;;;;;;;;;;;;;;;;5015103;28;20477;-64
2022/05/30 11:38:48;;;;;;;;;;;;;;;;;;5009637;28;20373;-64
2022/05/30 11:41:13;;;;;;;;;;;;;;;;;;5013098;28;19975;-64
2022/05/30 11:43:38;;;;;;;;;;;;;;;;;;5012957;28;19917;-63
2022/05/30 11:46:03;;;;;;;;;;;;;;;;;;5015195;28;19929;-63
2022/05/30 11:48:28;;;;;;;;;;;;;;;;;;5016363;28;19928;-65
2022/05/30 11:50:54;;;;;;;;;;;;;;;;;;5015882;28;20352;-65
2022/05/30 11:53:20;;;;;;;;;;;;;;;;;;5016997;28;20362;-65
2022/05/30 11:55:45;;;;;;;;;;;;;;;;;;5017158;28;19920;-66
2022/05/30 11:58:10;;;;;;;;;;;;;;;;;;5015327;28;19917;-64
2022/05/30 12:00:35;;;;;;;;;;;;;;;;;;5015697;28;19913;-64
2022/05/30 12:03:01;;;;;;;;;;;;;;;;;;5015839;28;19917;-66
2022/05/30 12:05:26;;;;;;;;;;;;;;;;;;5014723;28;19920;-66
2022/05/30 12:07:51;;;;;;;;;;;;;;;;;;5017446;28;19925;-65
2022/05/30 12:10:16;;;;;;;;;;;;;;;;;;5014910;28;19956;-66
2022/05/30 12:12:42;;;;;;;;;;;;;;;;;;5016298;28;19956;-66
2022/05/30 12:15:07;;;;;;;;;;;;;;;;;;5015900;28;20552;-64
2022/05/30 12:17:33;;;;;;;;;;;;;;;;;;5013765;28;19925;-66
2022/05/30 12:25:26;;;;;;;;;;;;;;;;;;5016350;28;20463;-66
2022/05/30 12:27:51;;;;;;;;;;;;;;;;;;5030367;28;20425;-65
2022/05/30 12:30:16;;;;;;;;;;;;;;;;;;5013910;28;20004;-68
2022/05/30 12:32:42;;;;;;;;;;;;;;;;;;5015971;28;19992;-66
2022/05/30 12:37:35;;;;;;;;;;;;;;;;;;5013958;28;19917;-67
2022/05/30 12:40:00;;;;;;;;;;;;;;;;;;5015353;28;19917;-68
2022/05/30 12:42:26;;;;;;;;;;;;;;;;;;5015510;28;19996;-67
2022/05/30 12:44:51;;;;;;;;;;;;;;;;;;5015566;28;19924;-67
2022/05/30 12:47:16;;;;;;;;;;;;;;;;;;5013992;28;19921;-65
2022/05/30 12:49:42;;;;;;;;;;;;;;;;;;5010713;28;20676;-66
2022/05/30 12:52:07;;;;;;;;;;;;;;;;;;5017066;28;20338;-66
2022/05/30 12:54:32;;;;;;;;;;;;;;;;;;5008174;28;19929;-65
2022/05/30 12:56:57;;;;;;;;;;;;;;;;;;5017620;28;20706;-64
2022/05/30 12:59:23;;;;;;;;;;;;;;;;;;5018318;28;19921;-66
2022/05/30 13:01:48;;;;;;;;;;;;;;;;;;5023323;28;19936;-66
2022/05/30 13:04:14;;;;;;;;;;;;;;;;;;5016149;28;20019;-66
2022/05/30 13:06:39;;;;;;;;;;;;;;;;;;5018459;28;20516;-67
2022/05/30 13:09:04;;;;;;;;;;;;;;;;;;5018821;28;20000;-65
2022/05/30 13:11:29;;;;;;;;;;;;;;;;;;5016505;28;20408;-65
2022/05/30 13:13:54;;;;;;;;;;;;;;;;;;5016837;28;19924;-67
2022/05/30 13:16:20;;;;;;;;;;;;;;;;;;5017390;28;19957;-67
2022/05/30 13:18:45;;;;;;;;;;;;;;;;;;5017542;28;19917;-66
2022/05/30 13:21:10;;;;;;;;;;;;;;;;;;5015601;28;19917;-67
2022/05/30 13:23:35;;;;;;;;;;;;;;;;;;5014749;28;19980;-66
2022/05/30 13:26:01;;;;;;;;;;;;;;;;;;5016358;28;20361;-68
2022/05/30 13:28:26;;;;;;;;;;;;;;;;;;5018076;28;20012;-66
2022/05/30 13:30:51;;;;;;;;;;;;;;;;;;5015480;28;20038;-68
2022/05/30 13:33:16;;;;;;;;;;;;;;;;;;5015359;28;19917;-67
2022/05/30 13:35:42;;;;;;;;;;;;;;;;;;5016209;28;20425;-66
2022/05/30 13:38:08;;;;;;;;;;;;;;;;;;5021182;28;19921;-68
2022/05/30 13:40:33;;;;;;;;;;;;;;;;;;5015604;28;19966;-66
2022/05/30 13:42:58;;;;;;;;;;;;;;;;;;5017917;28;19913;-66
2022/05/30 13:45:23;;;;;;;;;;;;;;;;;;5016912;28;19964;-68
2022/05/30 13:47:48;;;;;;;;;;;;;;;;;;5018584;28;19921;-67
2022/05/30 13:50:14;;;;;;;;;;;;;;;;;;5016583;28;19952;-67
2022/05/30 13:52:39;;;;;;;;;;;;;;;;;;5016772;28;19917;-67
2022/05/30 13:55:05;;;;;;;;;;;;;;;;;;5017112;28;20281;-65
2022/05/30 13:57:30;;;;;;;;;;;;;;;;;;5015288;28;20434;-64
2022/05/30 13:59:55;;;;;;;;;;;;;;;;;;5016509;28;20036;-65
2022/05/30 14:02:22;;;;;;;;;;;;;;;;;;5016808;28;19917;-65
2022/05/30 14:04:47;;;;;;;;;;;;;;;;;;5013765;28;20366;-66
2022/05/30 14:07:13;;;;;;;;;;;;;;;;;;5017275;28;19984;-65
2022/05/30 14:09:38;;;;;;;;;;;;;;;;;;5017088;28;19917;-65
2022/05/30 14:12:04;;;;;;;;;;;;;;;;;;5015884;28;20012;-65
2022/05/30 14:14:29;;;;;;;;;;;;;;;;;;5016318;28;19917;-64
2022/05/30 14:16:54;;;;;;;;;;;;;;;;;;5014692;28;20012;-65
2022/05/30 14:19:19;;;;;;;;;;;;;;;;;;5015626;28;19924;-66
2022/05/30 14:21:45;;;;;;;;;;;;;;;;;;5016218;28;20394;-67
2022/05/30 14:24:17;;;;;;;;;;;;;;;;;;5015650;28;20764;-67
2022/05/30 14:26:42;;;;;;;;;;;;;;;;;;5015199;28;20040;-64
2022/05/30 14:29:07;;;;;;;;;;;;;;;;;;5015147;28;20356;-66
2022/05/30 14:31:33;;;;;;;;;;;;;;;;;;5016134;28;19944;-66
2022/05/30 14:33:58;;;;;;;;;;;;;;;;;;5005482;28;20741;-68
2022/05/30 14:36:27;;;;;;;;;;;;;;;;;;5017458;28;20258;-66
2022/05/30 14:38:52;;;;;;;;;;;;;;;;;;5015095;28;19932;-68
2022/05/30 14:41:18;;;;;;;;;;;;;;;;;;5015243;28;19913;-64
2022/05/30 14:43:43;;;;;;;;;;;;;;;;;;5014771;28;19927;-66
2022/05/30 14:46:08;;;;;;;;;;;;;;;;;;5016544;28;20492;-66
2022/05/30 14:48:33;;;;;;;;;;;;;;;;;;5017041;28;19926;-66
2022/05/30 14:50:59;;;;;;;;;;;;;;;;;;5016040;28;20102;-67
2022/05/30 14:53:24;;;;;;;;;;;;;;;;;;5015184;28;20484;-67
2022/05/30 14:55:50;;;;;;;;;;;;;;;;;;5015451;28;19917;-67
2022/05/30 14:58:15;;;;;;;;;;;;;;;;;;5015168;28;19921;-65
2022/05/30 15:00:41;;;;;;;;;;;;;;;;;;5015209;28;19925;-64
2022/05/30 15:05:51;;;;;;;;;;;;;;;;;;5014410;28;20435;-64
2022/05/30 15:08:16;;;;;;;;;;;;;;;;;;5015147;28;19918;-66
2022/05/30 15:10:41;;;;;;;;;;;;;;;;;;5015512;28;19917;-65
2022/05/30 15:13:07;;;;;;;;;;;;;;;;;;5016523;28;19963;-65
2022/05/30 15:15:32;;;;;;;;;;;;;;;;;;5013540;28;19949;-65
2022/05/30 15:17:57;;;;;;;;;;;;;;;;;;5013164;28;19963;-65
2022/05/30 15:20:22;;;;;;;;;;;;;;;;;;5013299;28;19921;-65
2022/05/30 15:22:47;;;;;;;;;;;;;;;;;;5013800;28;19917;-66
2022/05/30 15:25:13;;;;;;;;;;;;;;;;;;5014306;28;19924;-64
2022/05/30 15:27:38;;;;;;;;;;;;;;;;;;5014108;28;19929;-65
2022/05/30 15:30:04;;;;;;;;;;;;;;;;;;5015741;28;19929;-64
2022/05/30 15:32:30;;;;;;;;;;;;;;;;;;5014651;28;19996;-63
2022/05/30 15:34:55;;;;;;;;;;;;;;;;;;5012903;28;19996;-64
2022/05/30 15:37:20;;;;;;;;;;;;;;;;;;5009207;28;19925;-66
2022/05/30 15:39:46;;;;;;;;;;;;;;;;;;4998406;28;19952;-65
2022/05/30 15:42:11;;;;;;;;;;;;;;;;;;5008296;28;19921;-64
2022/05/30 15:44:39;;;;;;;;;;;;;;;;;;5004213;28;20269;-64
2022/05/30 15:47:04;;;;;;;;;;;;;;;;;;5002818;28;20391;-64
2022/05/30 15:49:29;;;;;;;;;;;;;;;;;;5010687;28;19917;-65
2022/05/30 15:51:54;;;;;;;;;;;;;;;;;;5004055;28;19968;-65
2022/05/30 15:57:18;;;;;;;;;;;;;;;;;;5001582;28;19921;-64
2022/05/30 15:59:44;;;;;;;;;;;;;;;;;;5006084;28;20318;-65
2022/05/30 16:02:09;;;;;;;;;;;;;;;;;;5011709;28;20377;-65
2022/05/30 16:04:34;;;;;;;;;;;;;;;;;;5008218;28;20278;-63
2022/05/30 16:06:59;;;;;;;;;;;;;;;;;;5008683;28;19981;-62
2022/05/30 16:09:24;;;;;;;;;;;;;;;;;;5008928;28;19924;-64
2022/05/30 16:11:50;;;;;;;;;;;;;;;;;;5006923;28;19925;-63
2022/05/30 16:14:15;;;;;;;;;;;;;;;;;;5014999;28;19963;-66
2022/05/30 16:16:40;;;;;;;;;;;;;;;;;;5009617;28;19928;-63
2022/05/30 16:19:06;;;;;;;;;;;;;;;;;;5010096;28;21155;-63
2022/05/30 16:21:32;;;;;;;;;;;;;;;;;;5012334;28;19921;-64
2022/05/30 16:23:57;;;;;;;;;;;;;;;;;;5007637;28;19924;-65
2022/05/30 16:26:22;;;;;;;;;;;;;;;;;;5017558;28;19918;-64
2022/05/30 16:28:47;;;;;;;;;;;;;;;;;;5008492;28;19967;-65
2022/05/30 16:31:13;;;;;;;;;;;;;;;;;;5001853;28;20541;-64
2022/05/30 16:33:38;;;;;;;;;;;;;;;;;;5001773;28;21031;-63
2022/05/30 16:36:03;;;;;;;;;;;;;;;;;;5004475;28;20512;-64
2022/05/30 16:38:28;;;;;;;;;;;;;;;;;;5004983;28;20634;-65
2022/05/30 16:40:53;;;;;;;;;;;;;;;;;;4998531;28;19921;-63
2022/05/30 16:43:19;;;;;;;;;;;;;;;;;;4993359;28;19967;-62
2022/05/30 16:45:45;;;;;;;;;;;;;;;;;;5000418;28;19917;-63
2022/05/30 16:48:10;;;;;;;;;;;;;;;;;;4997463;28;19983;-64
2022/05/30 16:50:36;;;;;;;;;;;;;;;;;;5001242;28;20084;-63
2022/05/30 16:53:01;;;;;;;;;;;;;;;;;;4997728;28;20566;-63
2022/05/30 16:55:26;;;;;;;;;;;;;;;;;;5002577;28;19973;-62
2022/05/30 16:57:51;;;;;;;;;;;;;;;;;;4984702;28;19928;-64
2022/05/30 17:00:16;;;;;;;;;;;;;;;;;;4998222;28;20393;-64
2022/05/30 17:02:42;;;;;;;;;;;;;;;;;;5002738;28;19917;-63
2022/05/30 17:05:07;;;;;;;;;;;;;;;;;;4998565;28;19921;-62
2022/05/30 17:07:32;;;;;;;;;;;;;;;;;;5003619;28;19967;-62
2022/05/30 17:09:57;;;;;;;;;;;;;;;;;;5010239;28;19917;-63
2022/05/30 17:12:23;;;;;;;;;;;;;;;;;;5002836;28;19913;-62
2022/05/30 17:14:48;;;;;;;;;;;;;;;;;;5008459;28;19917;-63
2022/05/30 17:17:14;;;;;;;;;;;;;;;;;;5005891;28;19932;-62
2022/05/30 17:19:40;;;;;;;;;;;;;;;;;;5003145;28;19931;-63
2022/05/30 17:22:05;;;;;;;;;;;;;;;;;;5005189;28;20205;-65
2022/05/30 17:24:30;;;;;;;;;;;;;;;;;;4999505;28;19917;-64
2022/05/30 17:29:40;;;;;;;;;;;;;;;;;;4988534;28;20243;-62
2022/05/30 17:32:05;;;;;;;;;;;;;;;;;;4999335;28;20832;-63
2022/05/30 17:34:31;;;;;;;;;;;;;;;;;;5001270;28;20285;-63